Time;durP1;ratioP1;P1;durP2;ratioP2;P2;SDS_P1;SDS_P2;PMS_P1;PMS_P2;Temp;Humidity;BMP_temperature;BMP_pressure;BME280_temperature;BME280_humidity;BME280_pressure;Samples;Min_cycle;Max_cycle;Signal;HPM_P1;HPM_P2
2021/05/14 00:00:40;;;;;;;1.00;0.90;;;;;;;11.19;76.74;97871.94;4866125;28;102854;-77
2021/05/14 00:03:08;;;;;;;0.60;0.60;;;;;;;11.02;77.17;97871.63;4853363;29;103616;-77
2021/05/14 00:05:36;;;;;;;1.03;0.90;;;;;;;11.00;77.09;97868.25;4853489;28;105003;-77
2021/05/14 00:08:06;;;;;;;1.00;0.90;;;;;;;11.03;77.20;97872.47;4868229;28;102822;-76
2021/05/14 00:10:36;;;;;;;0.70;0.70;;;;;;;11.07;77.08;97874.69;4859294;28;102696;-77
2021/05/14 00:13:04;;;;;;;0.70;0.70;;;;;;;11.07;77.19;97874.69;4883733;28;103062;-77
2021/05/14 00:15:32;;;;;;;0.70;0.70;;;;;;;10.99;77.29;97869.25;4891460;28;103889;-77
2021/05/14 00:17:59;;;;;;;2.30;0.97;;;;;;;10.85;78.61;97874.88;4868374;28;102821;-78
2021/05/14 00:20:27;;;;;;;1.00;0.80;;;;;;;10.92;78.09;97881.31;4872305;28;103537;-77
2021/05/14 00:22:55;;;;;;;1.20;1.10;;;;;;;10.84;78.42;97873.19;4870591;28;103904;-77
2021/05/14 00:25:24;;;;;;;1.17;0.90;;;;;;;10.46;80.56;97873.84;4871859;28;103154;-78
2021/05/14 00:27:51;;;;;;;1.07;0.90;;;;;;;10.43;80.31;97873.25;4872236;28;103572;-77
2021/05/14 00:30:20;;;;;;;0.67;0.67;;;;;;;10.54;80.38;97870.56;4872485;28;103100;-77
2021/05/14 00:32:47;;;;;;;0.90;0.70;;;;;;;10.62;79.67;97872.53;4867246;28;104020;-77
2021/05/14 00:35:15;;;;;;;0.73;0.70;;;;;;;10.69;79.59;97863.97;4853332;29;103045;-77
2021/05/14 00:37:43;;;;;;;0.70;0.70;;;;;;;10.63;79.91;97866.28;4851760;29;102665;-77
2021/05/14 00:40:11;;;;;;;1.00;0.90;;;;;;;10.49;80.94;97872.75;4860457;28;102767;-77
2021/05/14 00:42:39;;;;;;;1.40;0.83;;;;;;;10.39;81.68;97869.19;4862144;28;103894;-77
2021/05/14 00:45:09;;;;;;;0.80;0.70;;;;;;;10.18;82.90;97873.66;4869682;28;110772;-78
2021/05/14 00:47:37;;;;;;;1.30;0.90;;;;;;;10.27;83.30;97870.25;4868286;28;103215;-77
2021/05/14 00:50:06;;;;;;;0.50;0.50;;;;;;;10.35;82.40;97866.00;4867778;28;102643;-77
2021/05/14 00:52:34;;;;;;;0.83;0.80;;;;;;;10.47;81.67;97874.66;4869952;28;104963;-78
2021/05/14 00:55:03;;;;;;;0.90;0.80;;;;;;;10.69;80.58;97871.91;4871630;28;103826;-77
2021/05/14 00:57:31;;;;;;;0.70;0.70;;;;;;;10.68;80.93;97872.84;4870977;28;103648;-77
2021/05/14 01:00:00;;;;;;;2.07;0.87;;;;;;;10.61;81.54;97863.75;4872413;28;102814;-77
2021/05/14 01:02:28;;;;;;;0.70;0.63;;;;;;;10.72;80.91;97866.31;4865807;28;104607;-77
2021/05/14 01:04:56;;;;;;;1.00;0.70;;;;;;;10.82;80.03;97863.75;4867979;28;103836;-77
2021/05/14 01:07:23;;;;;;;1.67;0.90;;;;;;;10.72;81.05;97863.69;4872082;28;102598;-77
2021/05/14 01:09:51;;;;;;;1.43;1.03;;;;;;;10.61;82.02;97866.41;4870771;28;102956;-77
2021/05/14 01:12:19;;;;;;;1.20;1.10;;;;;;;10.57;82.05;97859.72;4884052;28;103881;-76
2021/05/14 01:14:46;;;;;;;1.57;1.00;;;;;;;10.62;82.38;97868.09;4890955;28;104848;-77
2021/05/14 01:17:14;;;;;;;1.80;1.00;;;;;;;10.48;82.78;97863.13;4866072;28;102600;-77
2021/05/14 01:19:42;;;;;;;1.47;1.00;;;;;;;10.39;83.13;97861.28;4872185;28;102830;-77
2021/05/14 01:22:10;;;;;;;2.07;1.27;;;;;;;10.30;83.57;97862.88;4871781;28;103807;-77
2021/05/14 01:24:38;;;;;;;1.03;0.90;;;;;;;10.09;84.88;97861.19;4872175;28;103831;-76
2021/05/14 01:27:05;;;;;;;1.93;1.40;;;;;;;9.83;85.85;97853.63;4872723;28;102534;-77
2021/05/14 01:29:33;;;;;;;2.93;1.10;;;;;;;9.84;85.46;97865.88;4872068;28;104523;-76
2021/05/14 01:32:00;;;;;;;1.80;1.20;;;;;;;9.88;85.14;97856.72;4871518;28;104036;-77
2021/05/14 01:34:28;;;;;;;1.20;1.10;;;;;;;10.11;83.47;97857.44;4869883;28;104938;-77
2021/05/14 01:42:30;;;;;;;3.03;1.10;;;;;;;10.35;82.61;97859.88;4950276;23;104471;-77
2021/05/14 01:44:59;;;;;;;2.13;0.90;;;;;;;10.26;83.74;97858.00;4850807;28;104709;-76
2021/05/14 01:47:26;;;;;;;1.00;0.77;;;;;;;10.24;83.94;97852.88;4872307;28;103165;-76
2021/05/14 01:49:54;;;;;;;1.53;1.03;;;;;;;10.06;85.29;97853.53;4872473;28;103136;-77
2021/05/14 01:52:22;;;;;;;1.00;0.90;;;;;;;10.01;85.55;97845.16;4872842;28;103164;-76
2021/05/14 01:54:49;;;;;;;1.43;1.10;;;;;;;10.04;85.02;97845.75;4853785;28;106085;-76
2021/05/14 01:57:17;;;;;;;3.50;1.10;;;;;;;9.90;85.21;97844.25;4871449;28;103092;-76
2021/05/14 01:59:45;;;;;;;1.47;1.23;;;;;;;9.78;86.02;97845.25;4858390;28;102951;-76
2021/05/14 02:02:18;;;;;;;1.67;1.07;;;;;;;9.90;84.85;97849.53;4842688;28;105047;-75
2021/05/14 02:04:46;;;;;;;0.93;0.90;;;;;;;10.02;84.11;97849.47;4867502;28;108566;-76
2021/05/14 02:07:14;;;;;;;1.20;1.10;;;;;;;10.08;83.79;97848.94;4871467;28;102599;-75
2021/05/14 02:09:41;;;;;;;1.13;0.80;;;;;;;10.17;83.27;97846.41;4854086;28;102745;-75
2021/05/14 02:12:09;;;;;;;3.23;0.93;;;;;;;10.12;83.34;97848.56;4859857;28;103963;-76
2021/05/14 02:14:36;;;;;;;1.73;0.93;;;;;;;9.99;83.49;97847.09;4851852;29;104856;-76
2021/05/14 02:17:05;;;;;;;2.07;0.83;;;;;;;9.70;85.17;97849.50;4868652;28;102586;-76
2021/05/14 02:19:32;;;;;;;1.17;1.00;;;;;;;9.65;86.08;97859.59;4871740;28;102928;-76
2021/05/14 02:22:00;;;;;;;1.00;0.90;;;;;;;9.65;86.58;97855.16;4870386;28;104179;-76
2021/05/14 02:24:27;;;;;;;0.93;0.90;;;;;;;9.65;85.97;97852.50;4851984;28;103054;-76
2021/05/14 02:26:55;;;;;;;1.47;1.00;;;;;;;9.31;87.65;97851.78;4833763;29;102702;-76
2021/05/14 02:29:22;;;;;;;0.80;0.73;;;;;;;9.49;86.68;97852.06;4851239;28;103272;-78
2021/05/14 02:31:49;;;;;;;1.43;0.97;;;;;;;9.52;86.28;97851.81;4851463;29;104504;-76
2021/05/14 02:34:18;;;;;;;0.97;0.90;;;;;;;9.54;86.29;97857.81;4851517;29;105213;-77
2021/05/14 02:36:46;;;;;;;0.70;0.70;;;;;;;9.59;85.82;97858.28;4863766;28;103002;-76
2021/05/14 02:39:13;;;;;;;0.80;0.70;;;;;;;9.64;85.39;97861.38;4853481;28;103089;-76
2021/05/14 02:41:41;;;;;;;0.97;0.87;;;;;;;9.66;84.72;97862.09;4867348;28;103310;-76
2021/05/14 02:44:08;;;;;;;1.23;1.10;;;;;;;9.55;86.03;97854.22;4869962;28;103832;-76
2021/05/14 02:46:36;;;;;;;1.10;0.80;;;;;;;9.57;85.73;97857.56;4869948;28;102625;-76
2021/05/14 02:49:04;;;;;;;1.10;1.00;;;;;;;9.55;86.34;97854.22;4838497;29;102930;-76
2021/05/14 02:51:33;;;;;;;1.37;1.10;;;;;;;9.40;87.18;97855.47;4849353;29;103861;-76
2021/05/14 02:54:00;;;;;;;1.40;1.00;;;;;;;9.36;87.54;97863.72;4851008;29;103988;-76
2021/05/14 02:56:28;;;;;;;2.60;1.07;;;;;;;9.41;87.15;97854.47;4851289;29;102803;-76
2021/05/14 02:58:56;;;;;;;1.10;1.00;;;;;;;9.41;86.68;97859.75;4851733;29;102558;-76
2021/05/14 03:01:24;;;;;;;1.10;1.00;;;;;;;9.17;88.37;97849.41;4818204;29;105044;-76
2021/05/14 03:03:52;;;;;;;2.10;1.00;;;;;;;9.20;88.50;97848.31;4850859;29;103299;-77
2021/05/14 03:06:21;;;;;;;1.70;0.80;;;;;;;9.37;87.61;97846.97;4851715;29;102841;-77
2021/05/14 03:08:49;;;;;;;1.50;1.00;;;;;;;9.45;86.48;97853.28;4851186;29;102896;-77
2021/05/14 03:11:16;;;;;;;1.30;0.80;;;;;;;9.58;85.76;97859.22;4833870;29;103256;-77
2021/05/14 03:13:44;;;;;;;1.03;0.80;;;;;;;9.53;85.31;97856.13;4867302;28;103311;-76
2021/05/14 03:16:11;;;;;;;1.23;1.13;;;;;;;9.18;87.77;97855.47;4851799;28;103070;-76
2021/05/14 03:18:39;;;;;;;1.10;0.80;;;;;;;9.12;88.55;97858.63;4869610;28;102673;-77
2021/05/14 03:21:07;;;;;;;1.47;0.70;;;;;;;9.30;87.09;97857.16;4869841;28;104240;-77
2021/05/14 03:23:34;;;;;;;1.00;0.90;;;;;;;9.18;87.56;97856.31;4869455;28;104188;-76
2021/05/14 03:26:03;;;;;;;2.47;1.00;;;;;;;9.18;87.71;97855.47;4881290;28;102840;-77
2021/05/14 03:28:30;;;;;;;0.90;0.90;;;;;;;9.18;86.76;97858.13;4888932;28;102845;-77
2021/05/14 03:30:58;;;;;;;1.33;0.90;;;;;;;9.12;86.86;97861.28;4888083;28;103423;-77
2021/05/14 03:33:26;;;;;;;0.80;0.80;;;;;;;9.14;87.17;97861.97;4888209;28;108929;-77
2021/05/14 03:35:54;;;;;;;1.00;0.90;;;;;;;9.07;86.78;97860.78;4888840;28;102953;-77
2021/05/14 03:38:22;;;;;;;1.87;1.00;;;;;;;8.78;89.05;97856.97;4889033;28;102642;-76
2021/05/14 03:40:50;;;;;;;1.27;1.10;;;;;;;8.86;88.09;97865.13;4884715;28;103881;-77
2021/05/14 03:43:18;;;;;;;1.30;0.90;;;;;;;8.95;87.75;97856.50;4870383;28;104863;-76
2021/05/14 03:45:46;;;;;;;1.13;1.00;;;;;;;9.10;86.56;97858.75;4852192;28;102968;-78
2021/05/14 03:48:20;;;;;;;1.17;0.90;;;;;;;9.09;86.52;97861.50;4852995;28;103026;-78
2021/05/14 03:50:50;;;;;;;1.00;0.90;;;;;;;9.14;86.79;97860.19;4863725;28;104321;-78
2021/05/14 03:53:18;;;;;;;0.97;0.80;;;;;;;9.16;86.44;97867.97;4888642;28;104249;-80
2021/05/14 03:55:46;;;;;;;1.30;0.93;;;;;;;9.17;86.28;97859.94;4888343;28;103164;-78
2021/05/14 03:58:14;;;;;;;2.23;1.13;;;;;;;9.15;86.44;97861.84;4841967;28;103051;-79
2021/05/14 04:00:42;;;;;;;1.83;0.83;;;;;;;9.21;86.43;97856.09;4860562;28;103761;-78
2021/05/14 04:03:11;;;;;;;2.37;0.90;;;;;;;9.18;86.74;97866.03;4866163;28;103668;-78
2021/05/14 04:05:40;;;;;;;1.83;1.10;;;;;;;9.21;86.73;97865.78;4847264;28;103107;-77
2021/05/14 04:08:09;;;;;;;2.37;0.93;;;;;;;9.12;87.69;97867.34;4830990;29;103287;-78
2021/05/14 04:10:50;;;;;;;0.70;0.60;;;;;;;9.21;86.24;97863.16;4831054;29;104080;-77
2021/05/14 04:16:10;;;;;;;1.10;0.90;;;;;;;9.26;85.11;97864.47;4812810;28;103442;-77
2021/05/14 04:18:39;;;;;;;2.00;1.50;;;;;;;9.18;86.08;97872.13;4867983;28;102680;-77
2021/05/14 04:21:07;;;;;;;1.17;1.00;;;;;;;8.92;87.76;97867.28;4854448;28;103747;-78
2021/05/14 04:23:34;;;;;;;2.13;1.10;;;;;;;8.90;87.42;97870.00;4868349;28;103058;-77
2021/05/14 04:26:02;;;;;;;1.30;1.10;;;;;;;8.51;89.18;97863.41;4877315;28;103089;-77
2021/05/14 04:28:30;;;;;;;1.57;1.17;;;;;;;8.74;89.23;97859.84;4853784;28;103016;-77
2021/05/14 04:30:57;;;;;;;1.20;1.10;;;;;;;8.93;87.63;97868.94;4861739;28;103890;-77
2021/05/14 04:33:26;;;;;;;2.20;1.37;;;;;;;8.89;86.57;97870.16;4845216;28;105093;-76
2021/05/14 04:35:54;;;;;;;1.80;1.00;;;;;;;8.98;86.98;97866.78;4852658;28;102991;-77
2021/05/14 04:38:21;;;;;;;1.03;0.90;;;;;;;9.06;86.32;97872.28;4887996;28;102868;-77
2021/05/14 04:40:49;;;;;;;2.13;1.10;;;;;;;8.80;87.35;97866.44;4885864;28;103525;-77
2021/05/14 04:43:17;;;;;;;3.00;1.20;;;;;;;8.79;87.70;97872.66;4864716;28;103363;-76
2021/05/14 04:45:44;;;;;;;2.90;1.27;;;;;;;8.68;88.86;97867.38;4871215;28;103270;-77
2021/05/14 04:48:12;;;;;;;1.10;1.00;;;;;;;8.58;89.98;97876.94;4871662;28;103163;-77
2021/05/14 04:50:40;;;;;;;1.47;1.20;;;;;;;8.58;89.60;97872.53;4855500;28;106042;-77
2021/05/14 04:53:13;;;;;;;1.87;1.00;;;;;;;8.70;89.63;97870.75;4871426;28;107594;-77
2021/05/14 04:55:41;;;;;;;0.93;0.83;;;;;;;8.99;88.11;97876.34;4887186;28;102762;-76
2021/05/14 04:58:10;;;;;;;1.00;0.90;;;;;;;9.29;86.12;97868.66;4889394;28;102974;-77
2021/05/14 05:00:38;;;;;;;1.47;0.93;;;;;;;9.49;84.74;97875.78;4877808;28;105261;-77
2021/05/14 05:03:07;;;;;;;1.70;1.07;;;;;;;9.62;84.75;97881.78;4879053;28;105123;-77
2021/05/14 05:05:36;;;;;;;1.00;0.90;;;;;;;9.66;84.92;97871.78;4891948;28;102910;-78
2021/05/14 05:08:05;;;;;;;0.90;0.90;;;;;;;9.83;84.30;97880.00;4866039;28;102661;-77
2021/05/14 05:10:32;;;;;;;2.20;0.90;;;;;;;9.95;83.47;97874.69;4854223;28;103944;-78
2021/05/14 05:13:00;;;;;;;2.00;0.90;;;;;;;10.07;82.93;97876.31;4865591;28;104817;-77
2021/05/14 05:15:27;;;;;;;1.40;1.00;;;;;;;10.19;82.78;97883.25;4848599;28;103425;-77
2021/05/14 05:17:55;;;;;;;1.67;1.10;;;;;;;10.27;82.46;97878.16;4849352;29;103233;-77
2021/05/14 05:20:22;;;;;;;1.83;0.93;;;;;;;10.40;82.02;97884.94;4855985;28;104267;-77
2021/05/14 05:22:51;;;;;;;2.70;1.40;;;;;;;10.44;81.04;97880.22;4868919;28;104794;-77
2021/05/14 05:25:21;;;;;;;1.83;1.23;;;;;;;10.50;80.96;97890.25;4870254;28;103120;-77
2021/05/14 05:27:49;;;;;;;1.83;0.87;;;;;;;10.60;80.41;97890.31;4866352;28;103092;-77
2021/05/14 05:30:22;;;;;;;0.70;0.70;;;;;;;10.76;80.27;97891.53;4850378;28;105451;-77
2021/05/14 05:32:51;;;;;;;2.50;1.33;;;;;;;10.69;79.67;97895.66;4850096;28;105278;-77
2021/05/14 05:35:21;;;;;;;1.83;1.10;;;;;;;10.77;79.26;97889.72;4850512;28;103063;-78
2021/05/14 05:37:53;;;;;;;2.03;0.90;;;;;;;10.79;79.08;97890.41;4852042;28;103171;-76
2021/05/14 05:40:24;;;;;;;1.60;1.00;;;;;;;10.88;78.30;97895.75;4850265;28;105897;-76
2021/05/14 05:42:52;;;;;;;0.97;0.70;;;;;;;11.02;78.30;97887.47;4862277;28;103540;-76
2021/05/14 05:45:22;;;;;;;1.03;0.93;;;;;;;11.09;78.61;97897.53;4863154;28;103144;-76
2021/05/14 05:47:50;;;;;;;0.97;0.87;;;;;;;11.19;77.86;97896.59;4866813;28;103041;-77
2021/05/14 05:50:19;;;;;;;1.87;1.13;;;;;;;11.32;77.33;97896.34;4841809;28;103592;-77
2021/05/14 05:52:47;;;;;;;2.53;0.80;;;;;;;11.51;77.48;97899.03;4877657;28;105227;-78
2021/05/14 05:55:19;;;;;;;1.07;0.97;;;;;;;11.59;76.14;97893.91;4889805;28;103214;-78
2021/05/14 05:57:49;;;;;;;2.67;0.90;;;;;;;11.65;75.89;97899.47;4881009;28;104562;-77
2021/05/14 06:00:19;;;;;;;0.80;0.63;;;;;;;11.83;75.69;97904.13;4864340;28;104215;-77
2021/05/14 06:02:48;;;;;;;0.90;0.80;;;;;;;11.77;74.95;97897.59;4868545;28;105326;-79
2021/05/14 06:05:18;;;;;;;1.00;0.80;;;;;;;11.90;75.21;97900.78;4852034;28;103328;-79
2021/05/14 06:07:46;;;;;;;1.10;0.67;;;;;;;11.89;74.42;97914.19;4869517;28;103107;-78
2021/05/14 06:10:14;;;;;;;1.87;0.80;;;;;;;11.86;74.89;97904.72;4866587;28;104539;-78
2021/05/14 06:12:42;;;;;;;1.50;1.00;;;;;;;11.99;74.63;97915.84;4877111;28;103770;-80
2021/05/14 06:15:10;;;;;;;3.70;0.80;;;;;;;12.19;73.92;97906.09;4875261;28;103237;-79
2021/05/14 06:17:40;;;;;;;1.30;0.60;;;;;;;12.32;72.86;97916.44;4869638;28;102704;-80
2021/05/14 06:20:11;;;;;;;1.17;0.70;;;;;;;12.29;73.00;97922.84;4881738;28;102830;-81
2021/05/14 06:22:39;;;;;;;3.03;0.90;;;;;;;12.33;73.55;97924.22;4884437;28;102729;-80
2021/05/14 06:25:07;;;;;;;0.97;0.80;;;;;;;12.29;73.70;97924.66;4878615;28;102626;-80
2021/05/14 06:27:34;;;;;;;2.83;0.67;;;;;;;12.19;73.78;97924.63;4879722;28;103129;-80
2021/05/14 06:30:03;;;;;;;0.87;0.80;;;;;;;12.14;74.42;97926.88;4865487;28;103055;-80
2021/05/14 06:32:31;;;;;;;2.53;0.97;;;;;;;12.24;73.81;97924.25;4861241;28;103101;-80
2021/05/14 06:34:59;;;;;;;1.27;0.60;;;;;;;12.17;74.09;97924.78;4863882;28;103112;-79
2021/05/14 06:37:26;;;;;;;1.33;0.60;;;;;;;12.42;74.29;97922.53;4867769;28;103055;-80
2021/05/14 06:39:54;;;;;;;1.27;0.80;;;;;;;12.71;72.78;97918.03;4881392;28;104257;-80
2021/05/14 06:42:21;;;;;;;1.43;0.83;;;;;;;12.95;72.18;97923.69;4851598;28;112558;-76
2021/05/14 06:44:49;;;;;;;1.67;1.00;;;;;;;12.98;71.22;97926.06;4849914;28;103187;-76
2021/05/14 06:47:16;;;;;;;1.80;0.73;;;;;;;13.21;70.73;97924.75;4843886;28;102906;-76
2021/05/14 06:49:46;;;;;;;1.27;0.60;;;;;;;13.03;71.39;97922.97;4852562;28;104968;-75
2021/05/14 06:52:14;;;;;;;3.13;0.60;;;;;;;12.91;71.58;97926.78;4866185;28;104967;-76
2021/05/14 06:54:41;;;;;;;1.47;0.60;;;;;;;12.93;71.08;97930.97;4878313;28;103347;-76
2021/05/14 06:57:09;;;;;;;0.80;0.43;;;;;;;12.95;71.68;97931.66;4858555;28;103122;-79
2021/05/14 06:59:37;;;;;;;1.90;0.70;;;;;;;12.96;72.08;97928.03;4867545;28;103902;-78
2021/05/14 07:02:04;;;;;;;1.17;0.63;;;;;;;13.13;72.10;97929.97;4867706;28;103197;-79
2021/05/14 07:04:32;;;;;;;0.60;0.50;;;;;;;13.47;71.34;97929.41;4867113;28;103026;-79
2021/05/14 07:07:00;;;;;;;0.30;0.30;;;;;;;13.64;69.88;97928.63;4863269;28;103458;-78
2021/05/14 07:09:28;;;;;;;1.57;0.57;;;;;;;13.80;69.42;97926.13;4865862;28;104935;-79
2021/05/14 07:11:57;;;;;;;1.13;0.73;;;;;;;13.93;69.04;97929.25;4867203;28;105144;-79
2021/05/14 07:14:26;;;;;;;1.93;0.77;;;;;;;14.04;67.37;97929.03;4851374;28;103497;-79
2021/05/14 07:16:53;;;;;;;0.90;0.60;;;;;;;13.42;70.59;97929.00;4867552;28;103270;-78
2021/05/14 07:19:21;;;;;;;0.77;0.60;;;;;;;13.30;69.43;97934.47;4865621;28;104432;-78
2021/05/14 07:21:49;;;;;;;0.53;0.50;;;;;;;13.80;68.76;97934.09;4867399;28;103685;-78
2021/05/14 07:24:17;;;;;;;0.90;0.80;;;;;;;14.15;67.55;97935.94;4865877;28;103022;-78
2021/05/14 07:26:45;;;;;;;0.80;0.70;;;;;;;14.46;67.44;97927.47;4884477;28;102942;-78
2021/05/14 07:29:12;;;;;;;1.37;0.67;;;;;;;14.57;67.38;97933.53;4885194;28;103390;-79
2021/05/14 07:31:40;;;;;;;0.90;0.70;;;;;;;15.23;65.83;97929.34;4877026;28;103745;-78
2021/05/14 07:34:08;;;;;;;2.33;0.60;;;;;;;15.44;64.84;97916.44;4866722;28;103409;-78
2021/05/14 07:36:42;;;;;;;2.30;0.70;;;;;;;15.49;65.30;97919.53;4847567;29;103143;-78
2021/05/14 07:39:10;;;;;;;0.60;0.60;;;;;;;15.47;65.63;97918.81;4865082;28;103840;-78
2021/05/14 07:41:38;;;;;;;0.87;0.57;;;;;;;16.03;63.45;97914.66;4859899;28;105592;-80
2021/05/14 07:44:06;;;;;;;2.00;1.13;;;;;;;15.60;63.40;97915.72;4858346;28;105177;-79
2021/05/14 07:46:33;;;;;;;1.03;0.60;;;;;;;15.93;62.03;97925.47;4864036;28;103080;-79
2021/05/14 07:49:01;;;;;;;0.77;0.50;;;;;;;15.26;61.84;97926.34;4865469;28;111146;-79
2021/05/14 07:51:28;;;;;;;1.17;0.50;;;;;;;14.92;63.69;97920.16;4861160;28;104160;-78
2021/05/14 07:54:01;;;;;;;0.77;0.60;;;;;;;15.45;64.85;97923.44;4879736;28;102688;-79
2021/05/14 07:56:28;;;;;;;1.37;0.60;;;;;;;15.03;64.65;97925.22;4863002;28;102832;-80
2021/05/14 07:58:56;;;;;;;0.50;0.50;;;;;;;15.42;63.73;97926.44;4871690;28;107654;-75
2021/05/14 08:01:24;;;;;;;0.87;0.60;;;;;;;15.52;63.24;97931.66;4860616;29;103849;-82
2021/05/14 08:03:54;;;;;;;0.93;0.33;;;;;;;15.26;61.84;97922.84;4896192;23;103622;-79
2021/05/14 08:06:22;;;;;;;0.50;0.50;;;;;;;14.96;63.35;97924.19;4861700;28;102930;-77
2021/05/14 08:08:50;;;;;;;0.67;0.50;;;;;;;15.08;62.16;97921.09;4819014;29;103147;-77
2021/05/14 08:11:18;;;;;;;1.00;0.80;;;;;;;15.59;62.40;97925.53;4836001;28;103170;-77
2021/05/14 08:13:46;;;;;;;1.57;0.60;;;;;;;15.85;61.37;97928.13;4833081;29;103457;-77
2021/05/14 08:16:14;;;;;;;0.57;0.50;;;;;;;15.90;61.04;97925.81;4846349;29;102380;-77
2021/05/14 08:18:42;;;;;;;1.53;0.60;;;;;;;16.54;58.95;97929.56;4817369;29;102632;-77
2021/05/14 08:21:10;;;;;;;1.83;0.60;;;;;;;16.73;58.42;97922.06;4837246;29;103063;-77
2021/05/14 08:23:37;;;;;;;1.10;0.40;;;;;;;16.56;57.30;97923.06;4840629;29;102973;-77
2021/05/14 08:26:05;;;;;;;0.70;0.40;;;;;;;16.47;57.62;97921.41;4845967;28;103156;-77
2021/05/14 08:28:33;;;;;;;2.10;0.60;;;;;;;17.40;55.08;97911.94;4869925;28;103541;-77
2021/05/14 08:31:02;;;;;;;0.50;0.40;;;;;;;17.78;55.09;97918.31;4862571;28;104061;-77
2021/05/14 08:33:30;;;;;;;0.50;0.30;;;;;;;17.35;54.91;97922.28;4834476;29;102613;-77
2021/05/14 08:35:58;;;;;;;1.63;0.67;;;;;;;17.25;55.32;97913.66;4850723;29;103079;-77
2021/05/14 08:38:26;;;;;;;2.20;0.50;;;;;;;17.79;55.48;97918.16;4849063;29;103120;-77
2021/05/14 08:40:54;;;;;;;1.40;0.40;;;;;;;17.73;53.98;97920.69;4841668;29;103013;-77
2021/05/14 08:43:23;;;;;;;1.50;0.50;;;;;;;18.94;51.98;97920.69;4830254;29;102795;-77
2021/05/14 08:45:50;;;;;;;1.23;0.50;;;;;;;20.23;48.08;97918.31;4840531;28;103256;-77
2021/05/14 08:48:18;;;;;;;0.63;0.40;;;;;;;20.26;49.83;97917.13;4838992;29;102954;-77
2021/05/14 08:50:47;;;;;;;2.55;0.88;;;;;;;20.34;49.10;97906.25;4845953;29;103309;-77
2021/05/14 08:53:35;;;;;;;1.00;0.52;;;;;;;19.22;50.01;97912.88;4849494;29;103055;-76
2021/05/14 08:56:04;;;;;;;0.63;0.40;;;;;;;18.90;49.09;97913.19;4848353;29;103022;-76
2021/05/14 08:58:32;;;;;;;1.85;0.60;;;;;;;18.04;50.98;97908.16;4830261;29;103499;-76
2021/05/14 09:00:59;;;;;;;2.60;0.55;;;;;;;18.23;51.83;97920.22;4846804;29;103169;-76
2021/05/14 09:03:28;;;;;;;0.40;0.40;;;;;;;18.38;51.63;97913.94;4822667;29;102531;-76
2021/05/14 09:05:58;;;;;;;1.55;0.47;;;;;;;17.51;52.63;97914.25;4822776;29;103758;-74
2021/05/14 09:08:28;;;;;;;1.08;0.40;;;;;;;17.02;53.92;97923.38;4819877;29;102747;-74
2021/05/14 09:10:56;;;;;;;0.70;0.50;;;;;;;16.85;54.71;97921.72;4826062;29;106414;-75
2021/05/14 09:13:34;;;;;;;0.55;0.35;;;;;;;16.89;56.06;97917.75;4811293;29;103148;-75
2021/05/14 09:16:02;;;;;;;1.20;0.63;;;;;;;16.92;55.07;97914.72;4812057;29;103259;-75
2021/05/14 09:18:30;;;;;;;1.80;1.02;;;;;;;17.24;54.68;97919.97;4824810;29;102418;-74
2021/05/14 09:21:00;;;;;;;1.80;0.90;;;;;;;17.20;54.80;97916.00;4818897;29;105354;-75
2021/05/14 09:23:32;;;;;;;0.70;0.50;;;;;;;16.76;55.86;97919.06;4819678;29;102752;-74
2021/05/14 09:26:02;;;;;;;1.63;0.57;;;;;;;15.73;57.30;97921.41;4836060;28;103048;-77
2021/05/14 09:28:32;;;;;;;0.85;0.30;;;;;;;16.22;57.12;97930.38;4828998;29;103204;-74
2021/05/14 09:31:01;;;;;;;0.80;0.40;;;;;;;16.39;57.04;97926.72;4840368;29;103109;-75
2021/05/14 09:33:29;;;;;;;0.85;0.60;;;;;;;17.00;55.69;97917.38;4831281;29;103021;-75
2021/05/14 09:35:58;;;;;;;0.73;0.60;;;;;;;17.21;54.67;97920.31;4828211;29;102636;-74
2021/05/14 09:38:26;;;;;;;1.27;0.50;;;;;;;17.12;54.37;97910.69;4816272;29;102537;-74
2021/05/14 09:40:54;;;;;;;0.70;0.43;;;;;;;16.81;53.58;97919.41;4826885;29;103763;-75
2021/05/14 09:43:24;;;;;;;2.05;0.50;;;;;;;17.57;54.59;97913.56;4826563;29;102979;-75
2021/05/14 09:45:52;;;;;;;0.65;0.40;;;;;;;17.88;53.06;97917.06;4819386;29;102932;-75
2021/05/14 09:48:22;;;;;;;1.30;0.40;;;;;;;17.90;53.28;97909.75;4826848;29;102866;-75
2021/05/14 09:50:52;;;;;;;0.85;0.57;;;;;;;18.20;52.50;97915.22;4816795;29;102970;-75
2021/05/14 09:53:24;;;;;;;1.45;0.50;;;;;;;18.42;52.66;97914.41;4794491;29;102868;-75
2021/05/14 09:55:58;;;;;;;1.40;0.38;;;;;;;18.19;50.76;97908.22;4810683;29;102900;-75
2021/05/14 09:58:29;;;;;;;0.60;0.32;;;;;;;18.30;48.94;97903.28;4811078;29;103360;-75
2021/05/14 10:00:57;;;;;;;0.68;0.60;;;;;;;17.79;50.29;97902.13;4812393;29;103293;-75
2021/05/14 10:03:25;;;;;;;0.70;0.50;;;;;;;18.11;52.54;97906.44;4826492;28;102457;-75
2021/05/14 10:05:57;;;;;;;2.15;0.68;;;;;;;18.59;50.39;97905.25;4868800;28;102989;-75
2021/05/14 10:08:32;;;;;;;2.05;0.50;;;;;;;18.25;52.47;97907.50;4881656;28;104696;-75
2021/05/14 10:11:00;;;;;;;0.30;0.30;;;;;;;18.69;50.11;97905.03;4866835;28;103007;-75
2021/05/14 10:13:28;;;;;;;0.47;0.35;;;;;;;18.56;49.10;97902.94;4865492;28;102504;-75
2021/05/14 10:15:56;;;;;;;0.88;0.70;;;;;;;19.67;49.18;97906.50;4865056;28;103442;-76
2021/05/14 10:18:25;;;;;;;1.13;0.25;;;;;;;19.25;48.89;97909.81;4864577;28;104399;-75
2021/05/14 10:20:53;;;;;;;1.30;0.40;;;;;;;18.57;50.60;97907.31;4863410;28;104329;-74
2021/05/14 10:23:21;;;;;;;0.63;0.32;;;;;;;17.58;52.31;97909.88;4863251;28;103495;-75
2021/05/14 10:25:50;;;;;;;0.50;0.50;;;;;;;16.62;52.98;97906.41;4858831;28;103098;-74
2021/05/14 10:28:21;;;;;;;1.55;0.57;;;;;;;17.72;52.35;97906.47;4865107;28;102459;-75
2021/05/14 10:31:20;;;;;;;4.18;0.60;;;;;;;16.96;53.88;97902.69;4864835;28;103648;-74
2021/05/14 10:33:51;;;;;;;1.33;0.50;;;;;;;16.69;53.14;97904.75;4879144;28;104533;-74
2021/05/14 10:36:47;;;;;;;1.30;0.40;;;;;;;17.30;51.52;97900.63;4865776;28;103242;-74
2021/05/14 10:39:27;;;;;;;1.58;0.60;;;;;;;17.65;52.06;97896.69;4851284;28;102793;-74
2021/05/14 10:41:59;;;;;;;0.80;0.45;;;;;;;17.94;51.60;97905.69;4862070;28;103213;-74
2021/05/14 10:44:48;;;;;;;0.63;0.43;;;;;;;18.02;52.01;97896.78;4862944;28;102780;-74
2021/05/14 10:47:56;;;;;;;1.10;0.40;;;;;;;17.88;51.31;97895.69;4864553;28;103221;-75
2021/05/14 10:50:35;;;;;;;0.40;0.40;;;;;;;18.30;51.20;97897.13;4862602;28;104136;-75
2021/05/14 10:53:36;;;;;;;0.50;0.40;;;;;;;18.59;50.67;97899.06;4863137;28;103315;-74
2021/05/14 10:56:56;;;;;;;0.93;0.85;;;;;;;18.14;50.49;97895.38;4862835;28;102965;-74
2021/05/14 10:59:33;;;;;;;1.10;0.90;;;;;;;18.18;51.89;97890.53;4872914;28;103109;-74
2021/05/14 11:02:21;;;;;;;2.00;1.10;;;;;;;17.83;54.11;97891.91;4859624;28;105462;-75
2021/05/14 11:04:49;;;;;;;0.82;0.73;;;;;;;17.57;54.85;97902.88;4877551;28;103240;-75
2021/05/14 11:07:37;;;;;;;2.92;0.70;;;;;;;16.51;59.52;97912.06;4882560;28;103143;-75
2021/05/14 11:10:26;;;;;;;1.38;0.65;;;;;;;16.45;60.06;97931.38;4883919;28;103406;-76
2021/05/14 11:12:54;;;;;;;1.65;0.60;;;;;;;16.17;62.09;97933.50;4865362;28;102605;-75
2021/05/14 11:15:34;;;;;;;5.38;1.30;;;;;;;16.31;68.86;97934.69;4866186;28;103706;-75
2021/05/14 11:18:23;;;;;;;6.07;1.02;;;;;;;15.26;73.87;97925.50;4866458;28;102583;-75
2021/05/14 11:20:51;;;;;;;1.48;0.65;;;;;;;15.59;72.39;97922.88;4884649;28;103126;-74
2021/05/14 11:23:32;;;;;;;2.05;0.80;;;;;;;15.69;75.11;97928.06;4885121;28;102918;-74
2021/05/14 11:26:00;;;;;;;2.38;0.90;;;;;;;15.05;76.32;97933.88;4884967;28;104020;-75
2021/05/14 11:28:43;;;;;;;4.47;0.90;;;;;;;15.15;76.41;97921.31;4885686;28;102896;-74
2021/05/14 11:31:16;;;;;;;0.80;0.73;;;;;;;15.49;76.17;97913.34;4887567;28;102914;-74
2021/05/14 11:33:46;;;;;;;1.77;0.70;;;;;;;15.45;74.31;97915.47;4888912;28;102749;-74
2021/05/14 11:36:18;;;;;;;1.42;0.50;;;;;;;15.78;74.16;97904.94;4886670;28;103875;-74
2021/05/14 11:38:47;;;;;;;1.40;1.00;;;;;;;15.85;75.00;97896.16;4886248;28;103002;-74
2021/05/14 11:41:16;;;;;;;0.60;0.60;;;;;;;15.99;72.86;97902.69;4887321;28;102570;-74
2021/05/14 11:43:55;;;;;;;0.57;0.55;;;;;;;16.06;71.33;97898.34;4852627;28;105045;-74
2021/05/14 11:46:31;;;;;;;2.45;0.90;;;;;;;14.90;75.03;97898.22;4881057;28;102898;-74